createdAt,value
2018-09-02T00:02:35.195Z,106.07
2018-09-02T00:05:15.878Z,59.83
2018-09-02T00:07:56.158Z,91.80
2018-09-02T00:10:37.215Z,105.43
2018-09-02T00:13:16.091Z,137.87
2018-09-02T00:15:56.836Z,292.53
2018-09-02T00:18:37.450Z,720.37
2018-09-02T00:21:17.413Z,613.03
2018-09-02T00:23:56.914Z,642.07
2018-09-02T00:26:40.295Z,619.10
2018-09-02T00:29:20.217Z,843.43
2018-09-02T00:32:01.690Z,811.30
2018-09-02T00:34:40.871Z,778.63
2018-09-02T00:37:23.631Z,519.33
2018-09-02T00:40:05.408Z,343.80
2018-09-02T00:42:44.998Z,481.43
2018-09-02T00:45:26.256Z,653.87
2018-09-02T00:48:05.174Z,699.97
2018-09-02T00:50:46.172Z,513.07
2018-09-02T00:53:24.344Z,579.07
2018-09-02T00:56:06.308Z,741.30
2018-09-02T00:58:46.673Z,469.90
2018-09-02T01:01:29.053Z,352.37
2018-09-02T01:04:09.901Z,280.13
2018-09-02T01:06:48.174Z,213.40
2018-09-02T01:09:26.174Z,176.30
2018-09-02T01:12:06.354Z,327.07
2018-09-02T01:14:48.853Z,269.47
2018-09-02T01:17:28.912Z,432.43
2018-09-02T01:20:10.652Z,637.83
2018-09-02T01:22:51.093Z,731.87
2018-09-02T01:25:32.397Z,775.83
2018-09-02T01:28:13.477Z,600.60
2018-09-02T01:30:53.517Z,616.67
2018-09-02T01:33:36.690Z,641.80
2018-09-02T01:36:18.410Z,715.60
2018-09-02T01:39:00.253Z,780.80
2018-09-02T01:41:41.355Z,794.20
2018-09-02T01:44:19.676Z,627.30
2018-09-02T01:46:57.891Z,797.40
2018-09-02T01:49:36.968Z,704.57
2018-09-02T01:52:19.315Z,825.13
2018-09-02T02:34:01.898Z,777.97
2018-09-02T02:36:42.000Z,856.33
2018-09-02T02:39:23.771Z,890.30
2018-09-02T02:42:07.432Z,931.27
2018-09-02T02:44:48.552Z,999.90
2018-09-02T02:47:27.575Z,999.90
2018-09-02T02:50:09.310Z,999.90
2018-09-02T02:52:53.914Z,999.90
2018-09-02T02:55:36.489Z,999.90
2018-09-02T02:58:13.995Z,999.90
2018-09-02T03:00:53.035Z,999.90
2018-09-02T03:03:31.656Z,999.90
2018-09-02T03:06:13.052Z,999.90
2018-09-02T03:08:54.612Z,998.27
2018-09-02T03:11:34.932Z,991.50
2018-09-02T03:14:15.098Z,959.00
2018-09-02T03:16:53.733Z,976.07
2018-09-02T03:19:32.468Z,966.03
2018-09-02T03:22:14.288Z,952.67
2018-09-02T03:24:55.301Z,952.40
2018-09-02T03:27:36.016Z,993.53
2018-09-02T03:30:19.092Z,960.90
2018-09-02T03:32:59.854Z,923.43
2018-09-02T03:35:39.816Z,950.53
2018-09-02T03:38:18.478Z,941.00
2018-09-02T03:40:56.534Z,938.63
2018-09-02T03:43:35.589Z,902.50
2018-09-02T03:46:15.728Z,920.80
2018-09-02T03:48:57.755Z,744.80
2018-09-02T03:51:38.232Z,922.53
2018-09-02T03:54:22.670Z,946.77
2018-09-02T03:57:00.610Z,919.33
2018-09-02T03:59:39.490Z,981.87
2018-09-02T04:02:18.054Z,999.90
2018-09-02T04:04:57.194Z,999.90
2018-09-02T04:07:35.715Z,999.90
2018-09-02T04:10:13.974Z,999.90
2018-09-02T04:12:52.273Z,832.87
2018-09-02T04:15:30.654Z,999.90
2018-09-02T04:18:09.814Z,999.90
2018-09-02T04:20:48.032Z,999.90
2018-09-02T04:23:27.610Z,772.97
2018-09-02T04:26:09.311Z,999.90
2018-09-02T04:28:47.213Z,913.37
2018-09-02T04:31:28.448Z,999.90
2018-09-02T04:34:09.436Z,979.57
2018-09-02T04:36:49.553Z,860.77
2018-09-02T04:39:28.978Z,979.47
2018-09-02T04:42:08.828Z,757.20
2018-09-02T04:44:48.612Z,756.37
2018-09-02T04:47:28.012Z,630.10
2018-09-02T04:50:18.851Z,374.53
2018-09-02T04:52:58.459Z,999.90
2018-09-02T04:55:38.258Z,999.90
2018-09-02T04:58:17.572Z,735.73
2018-09-02T05:00:57.584Z,671.97
2018-09-02T05:03:35.640Z,433.07
2018-09-02T05:06:15.756Z,421.67
2018-09-02T05:08:55.733Z,290.43
2018-09-02T05:11:35.698Z,479.23
2018-09-02T05:14:14.919Z,434.83
2018-09-02T05:16:54.891Z,580.80
2018-09-02T05:19:37.842Z,401.87
2018-09-02T05:22:17.851Z,646.73
2018-09-02T05:24:58.213Z,427.40
2018-09-02T05:27:37.296Z,327.90
2018-09-02T05:30:18.816Z,755.03
2018-09-02T05:32:59.114Z,426.63
2018-09-02T05:35:39.042Z,181.33
2018-09-02T05:38:18.835Z,427.77
2018-09-02T05:41:02.084Z,287.60
2018-09-02T05:43:42.132Z,262.50
2018-09-02T05:46:22.417Z,390.13
2018-09-02T05:49:04.331Z,449.97
2018-09-02T05:51:43.479Z,335.80
2018-09-02T05:54:25.598Z,337.97
2018-09-02T05:57:05.590Z,331.27
2018-09-02T05:59:47.790Z,434.57
2018-09-02T06:02:28.717Z,413.43
2018-09-02T06:05:09.878Z,370.20
2018-09-02T06:07:47.899Z,510.40
2018-09-02T06:10:28.448Z,422.83
2018-09-02T06:13:09.395Z,490.87
2018-09-02T06:15:50.653Z,705.33
2018-09-02T06:18:31.394Z,707.67
2018-09-02T06:21:09.696Z,277.07
2018-09-02T06:23:50.077Z,321.20
2018-09-02T06:26:33.492Z,384.23
2018-09-02T06:29:19.971Z,403.17
2018-09-02T06:32:03.433Z,472.53
2018-09-02T06:34:42.498Z,342.53
2018-09-02T06:37:23.768Z,380.00
2018-09-02T06:40:03.937Z,468.60
2018-09-02T06:42:43.001Z,431.73
2018-09-02T06:45:25.837Z,495.80
2018-09-02T06:48:06.305Z,479.50
2018-09-02T06:50:48.116Z,406.87
2018-09-02T06:53:27.954Z,788.80
2018-09-02T06:56:05.352Z,655.23
2018-09-02T06:58:44.848Z,665.53
2018-09-02T07:01:26.312Z,569.97
2018-09-02T07:04:06.774Z,443.80
2018-09-02T07:06:47.119Z,537.40
2018-09-02T07:09:27.732Z,583.30
2018-09-02T07:12:07.612Z,583.03
2018-09-02T07:14:45.791Z,589.87
2018-09-02T07:17:26.055Z,837.20
2018-09-02T07:20:05.944Z,615.47
2018-09-02T07:22:47.313Z,644.03
2018-09-02T07:25:30.550Z,664.27
2018-09-02T07:28:11.354Z,449.50
2018-09-02T07:30:59.013Z,999.90
2018-09-02T07:33:38.235Z,899.30
2018-09-02T07:36:21.251Z,580.23
2018-09-02T07:39:04.133Z,810.80
2018-09-02T07:41:47.516Z,714.20
2018-09-02T07:44:28.119Z,735.63
2018-09-02T07:47:09.850Z,707.93
2018-09-02T07:49:53.293Z,740.50
2018-09-02T07:52:38.616Z,616.60
2018-09-02T07:55:22.175Z,570.57
2018-09-02T07:58:02.232Z,891.20
2018-09-02T08:00:44.215Z,990.90
2018-09-02T08:03:25.154Z,812.70
2018-09-02T08:06:08.078Z,567.83
2018-09-02T08:08:49.195Z,748.20
2018-09-02T08:11:31.354Z,887.13
2018-09-02T08:14:14.520Z,701.40
2018-09-02T08:16:54.454Z,702.27
2018-09-02T08:19:38.898Z,468.50
2018-09-02T08:22:16.934Z,365.03
2018-09-02T08:24:54.698Z,541.77
2018-09-02T08:27:34.614Z,393.73
2018-09-02T08:30:14.711Z,711.97
2018-09-02T08:32:58.701Z,550.40
2018-09-02T08:35:41.955Z,448.53
2018-09-02T08:38:21.879Z,652.60
2018-09-02T08:41:02.172Z,783.80
2018-09-02T08:43:42.606Z,784.37
2018-09-02T08:46:28.569Z,726.97
2018-09-02T08:49:09.459Z,722.50
2018-09-02T08:51:51.739Z,583.77
2018-09-02T08:54:31.312Z,664.60
2018-09-02T08:57:11.517Z,511.27
2018-09-02T08:59:55.100Z,611.63
2018-09-02T09:02:37.373Z,580.30
2018-09-02T09:05:17.860Z,837.60
2018-09-02T09:08:00.111Z,443.03
2018-09-02T09:10:42.415Z,459.30
2018-09-02T09:13:22.275Z,769.00
2018-09-02T09:16:04.569Z,890.97
2018-09-02T09:18:43.656Z,999.90
2018-09-02T09:21:26.737Z,999.90
2018-09-02T09:24:06.202Z,949.37
2018-09-02T09:26:49.270Z,892.43
2018-09-02T09:29:28.776Z,982.97
2018-09-02T09:32:09.137Z,999.90
2018-09-02T09:34:52.658Z,999.90
2018-09-02T09:37:34.312Z,999.90
2018-09-02T09:40:15.055Z,999.90
2018-09-02T09:42:58.132Z,999.90
2018-09-02T09:45:36.490Z,972.70
2018-09-02T09:48:19.078Z,863.60
2018-09-02T09:50:57.945Z,999.90
2018-09-02T09:53:38.400Z,972.10
2018-09-02T09:56:20.471Z,770.13
2018-09-02T09:58:57.271Z,986.77
2018-09-02T10:01:35.380Z,953.03
2018-09-02T10:04:15.917Z,821.37
2018-09-02T10:06:55.139Z,987.37
2018-09-02T10:09:35.693Z,897.67
2018-09-02T10:12:15.693Z,837.17
2018-09-02T10:14:57.891Z,464.50
2018-09-02T10:17:38.116Z,605.20
2018-09-02T10:20:16.360Z,999.90
2018-09-02T10:22:55.793Z,809.80
2018-09-02T10:25:36.637Z,727.07
2018-09-02T10:28:17.291Z,652.50
2018-09-02T10:30:56.833Z,583.27
2018-09-02T10:33:38.994Z,654.03
2018-09-02T10:36:20.174Z,999.90
2018-09-02T10:38:59.771Z,977.37
2018-09-02T10:41:41.598Z,844.60
2018-09-02T10:44:23.462Z,543.80
2018-09-02T10:47:07.917Z,538.87
2018-09-02T10:49:49.014Z,941.97
2018-09-02T10:52:31.334Z,995.47
2018-09-02T10:55:13.094Z,635.53
2018-09-02T10:57:51.480Z,424.60
2018-09-02T11:00:30.131Z,952.90
2018-09-02T11:03:13.556Z,999.90
2018-09-02T11:05:55.334Z,960.80
2018-09-02T11:08:35.179Z,741.37
2018-09-02T11:11:19.193Z,910.30
2018-09-02T11:13:59.506Z,513.67
2018-09-02T11:16:43.442Z,474.90
2018-09-02T11:19:25.053Z,999.90
2018-09-02T11:22:03.274Z,848.67
2018-09-02T11:24:43.503Z,999.90
2018-09-02T11:27:25.355Z,381.50
2018-09-02T11:30:05.166Z,999.90
2018-09-02T11:32:43.450Z,862.57
2018-09-02T11:35:25.618Z,615.23
2018-09-02T11:38:04.976Z,999.90
2018-09-02T11:40:47.073Z,771.67
2018-09-02T11:43:26.536Z,923.73
2018-09-02T11:46:11.623Z,681.97
2018-09-02T11:48:53.135Z,999.90
2018-09-02T11:51:29.534Z,407.73
2018-09-02T11:54:08.734Z,700.13
2018-09-02T11:56:49.096Z,492.47
2018-09-02T11:59:30.492Z,999.90
2018-09-02T12:02:13.512Z,999.90
2018-09-02T12:04:56.181Z,999.90
2018-09-02T12:07:36.275Z,657.70
2018-09-02T12:10:13.956Z,628.17
2018-09-02T12:12:51.376Z,424.37
2018-09-02T12:15:28.437Z,961.47
2018-09-02T12:18:07.135Z,798.97
2018-09-02T12:20:46.753Z,914.00
2018-09-02T12:23:26.939Z,641.43
2018-09-02T12:26:05.792Z,714.87
2018-09-02T12:28:46.254Z,494.97
2018-09-02T12:31:24.112Z,999.90
2018-09-02T12:34:05.412Z,849.13
2018-09-02T12:36:45.653Z,801.40
2018-09-02T12:39:26.712Z,844.57
2018-09-02T12:42:05.923Z,999.90
2018-09-02T12:44:47.332Z,999.90
2018-09-02T12:47:25.412Z,999.90
2018-09-02T12:50:02.948Z,767.87
2018-09-02T12:52:42.214Z,468.67
2018-09-02T12:55:19.231Z,515.30
2018-09-02T12:57:59.379Z,430.97
2018-09-02T13:00:39.875Z,705.80
2018-09-02T13:03:20.453Z,777.77
2018-09-02T13:06:00.655Z,724.03
2018-09-02T13:08:39.157Z,444.47
2018-09-02T13:11:19.278Z,712.50
2018-09-02T13:13:58.480Z,275.00
2018-09-02T13:16:39.973Z,704.77
2018-09-02T13:19:18.709Z,304.13
2018-09-02T13:21:58.777Z,487.63
2018-09-02T13:24:43.499Z,298.90
2018-09-02T13:27:21.133Z,622.87
2018-09-02T13:30:00.756Z,409.90
2018-09-02T13:32:40.311Z,395.83
2018-09-02T13:35:21.246Z,223.83
2018-09-02T13:38:03.770Z,544.03
2018-09-02T13:40:41.158Z,242.70
2018-09-02T13:43:26.276Z,183.23
2018-09-02T13:46:06.762Z,510.63
2018-09-02T13:48:47.458Z,571.23
2018-09-02T13:51:25.438Z,711.43
2018-09-02T13:54:05.153Z,632.33
2018-09-02T13:56:45.335Z,660.30
2018-09-02T13:59:22.240Z,501.10
2018-09-02T14:02:02.215Z,673.63
2018-09-02T14:04:41.172Z,345.03
2018-09-02T14:07:19.473Z,704.50
2018-09-02T14:09:56.999Z,621.53
2018-09-02T14:12:36.779Z,340.23
2018-09-02T14:15:16.333Z,709.90
2018-09-02T14:17:57.456Z,591.47
2018-09-02T14:20:37.013Z,726.30
2018-09-02T14:23:17.273Z,419.70
2018-09-02T14:25:58.253Z,326.47
2018-09-02T14:28:37.603Z,300.70
2018-09-02T14:31:18.093Z,363.20
2018-09-02T14:33:57.633Z,312.70
2018-09-02T14:36:35.191Z,258.53
2018-09-02T14:39:24.915Z,368.27
2018-09-02T14:42:05.114Z,381.40
2018-09-02T14:44:46.275Z,394.97
2018-09-02T14:47:25.219Z,611.27
2018-09-02T14:50:03.542Z,517.60
2018-09-02T14:52:42.511Z,512.07
2018-09-02T14:55:21.717Z,244.07
2018-09-02T14:57:59.511Z,590.07
2018-09-02T15:00:39.658Z,324.00
2018-09-02T15:03:18.856Z,230.43
2018-09-02T15:05:58.295Z,640.80
2018-09-02T15:08:41.094Z,368.70
2018-09-02T15:11:20.060Z,337.27
2018-09-02T15:13:58.071Z,377.13
2018-09-02T15:16:37.914Z,443.80
2018-09-02T15:19:22.795Z,458.57
2018-09-02T15:22:04.254Z,615.57
2018-09-02T15:24:46.419Z,672.73
2018-09-02T15:27:25.835Z,742.27
2018-09-02T15:30:05.975Z,510.23
2018-09-02T15:32:46.839Z,513.77
2018-09-02T15:35:29.258Z,610.93
2018-09-02T15:38:13.238Z,700.57
2018-09-02T15:40:53.952Z,187.17
2018-09-02T15:43:35.750Z,302.17
2018-09-02T15:46:13.269Z,254.77
2018-09-02T15:48:53.500Z,710.70
2018-09-02T15:51:35.136Z,306.47
2018-09-02T15:54:13.495Z,428.53
2018-09-02T15:56:50.813Z,443.53
2018-09-02T15:59:31.331Z,361.93
2018-09-02T16:02:10.895Z,487.40
2018-09-02T16:04:54.017Z,392.87
2018-09-02T16:07:35.744Z,322.27
2018-09-02T16:10:15.972Z,386.03
2018-09-02T16:12:55.114Z,330.73
2018-09-02T16:15:34.273Z,305.60
2018-09-02T16:18:11.312Z,372.23
2018-09-02T16:20:54.173Z,470.27
2018-09-02T16:23:33.371Z,448.87
2018-09-02T16:26:11.112Z,349.23
2018-09-02T16:28:53.260Z,311.73
2018-09-02T17:45:58.499Z,657.80
2018-09-02T17:48:40.398Z,801.10
2018-09-02T17:51:24.920Z,507.93
2018-09-02T17:54:08.282Z,765.97
2018-09-02T17:56:50.663Z,866.77
2018-09-02T17:59:28.621Z,969.37
2018-09-02T18:02:11.127Z,869.07
2018-09-02T18:04:51.318Z,954.20
2018-09-02T18:07:36.861Z,794.70
2018-09-02T18:10:17.121Z,484.20
2018-09-02T18:12:59.360Z,649.97
2018-09-02T18:15:40.917Z,823.47
2018-09-02T18:18:24.583Z,845.77
2018-09-02T18:21:07.277Z,730.47
2018-09-02T18:23:50.703Z,575.73
2018-09-02T18:26:35.524Z,224.47
2018-09-02T18:29:22.094Z,731.50
2018-09-02T18:32:04.623Z,241.67
2018-09-02T18:34:46.101Z,341.57
2018-09-02T18:37:27.222Z,317.90
2018-09-02T18:40:10.364Z,463.47
2018-09-02T18:42:53.703Z,666.80
2018-09-02T18:45:34.202Z,574.60
2018-09-02T18:48:12.841Z,769.30
2018-09-02T18:50:55.606Z,724.93
2018-09-02T18:53:36.022Z,927.83
2018-09-02T18:56:14.800Z,330.00
2018-09-02T18:58:56.340Z,221.97
2018-09-02T19:01:34.760Z,417.37
2018-09-02T19:04:15.778Z,293.93
2018-09-02T19:06:58.903Z,456.07
2018-09-02T19:09:47.067Z,379.70
2018-09-02T19:12:27.676Z,260.17
2018-09-02T19:15:13.063Z,272.50
2018-09-02T19:17:54.362Z,534.70
2018-09-02T19:20:34.660Z,633.60
2018-09-02T19:23:18.161Z,797.50
2018-09-02T19:25:59.957Z,999.90
2018-09-02T19:28:39.437Z,920.90
2018-09-02T19:31:21.136Z,909.20
2018-09-02T19:33:59.478Z,999.90
2018-09-02T19:36:38.569Z,865.00
2018-09-02T19:39:18.238Z,923.53
2018-09-02T19:41:58.820Z,961.50
2018-09-02T19:44:38.558Z,914.00
2018-09-02T19:47:25.685Z,894.07
2018-09-02T19:50:10.344Z,999.90
2018-09-02T19:52:52.645Z,957.40
2018-09-02T19:55:35.802Z,150.43
2018-09-02T19:58:15.598Z,572.27
2018-09-02T20:01:04.925Z,819.33
2018-09-02T20:03:53.339Z,888.70
2018-09-02T20:06:42.359Z,958.43
2018-09-02T20:09:30.667Z,495.23
2018-09-02T20:12:15.075Z,793.23
2018-09-02T20:14:53.217Z,928.83
2018-09-02T20:17:35.324Z,859.10
2018-09-02T20:20:18.360Z,888.07
2018-09-02T20:22:59.847Z,789.13
2018-09-02T20:25:45.199Z,984.03
2018-09-02T20:28:31.545Z,988.83
2018-09-02T20:31:16.381Z,989.67
2018-09-02T20:33:56.837Z,898.77
2018-09-02T20:36:40.999Z,815.17
2018-09-02T20:39:22.063Z,860.63
2018-09-02T20:42:02.816Z,822.80
2018-09-02T20:44:46.142Z,378.50
2018-09-02T20:47:28.440Z,94.60
2018-09-02T23:35:29.461Z,762.07
2018-09-02T23:38:13.321Z,801.70
2018-09-02T23:40:54.958Z,639.40
2018-09-02T23:43:36.960Z,248.00
2018-09-02T23:46:20.218Z,345.53
2018-09-02T23:49:07.398Z,237.03
2018-09-02T23:51:48.102Z,241.63
2018-09-02T23:54:30.324Z,474.97
2018-09-02T23:57:10.602Z,472.33
2018-09-02T23:59:52.556Z,354.63
